sensor_id;sensor_type;location;lat;lon;timestamp;pressure;altitude;pressure_sealevel;temperature;humidity
77431;BME280;66498;48.564;19.272;2023-04-01T00:00:20;95973.28;;;8.81;70.50
77431;BME280;66498;48.564;19.272;2023-04-01T00:02:46;95980.56;;;8.79;70.81
77431;BME280;66498;48.564;19.272;2023-04-01T00:05:12;95978.22;;;8.77;71.19
77431;BME280;66498;48.564;19.272;2023-04-01T00:07:38;95975.00;;;8.70;71.39
77431;BME280;66498;48.564;19.272;2023-04-01T00:10:06;95974.81;;;8.76;71.49
77431;BME280;66498;48.564;19.272;2023-04-01T00:12:34;95977.06;;;8.68;71.77
77431;BME280;66498;48.564;19.272;2023-04-01T00:15:00;95976.28;;;8.67;71.89
77431;BME280;66498;48.564;19.272;2023-04-01T00:17:26;95976.81;;;8.69;71.91
77431;BME280;66498;48.564;19.272;2023-04-01T00:19:54;95986.28;;;8.75;71.83
77431;BME280;66498;48.564;19.272;2023-04-01T00:22:20;95974.00;;;8.76;71.81
77431;BME280;66498;48.564;19.272;2023-04-01T00:24:45;95980.56;;;8.79;71.40
77431;BME280;66498;48.564;19.272;2023-04-01T00:27:12;95980.13;;;8.87;71.13
77431;BME280;66498;48.564;19.272;2023-04-01T00:29:37;95975.69;;;8.87;71.50
77431;BME280;66498;48.564;19.272;2023-04-01T00:32:03;95970.94;;;8.84;71.52
77431;BME280;66498;48.564;19.272;2023-04-01T00:34:28;95979.00;;;8.77;71.80
77431;BME280;66498;48.564;19.272;2023-04-01T00:36:54;95982.38;;;8.78;71.71
77431;BME280;66498;48.564;19.272;2023-04-01T00:39:22;95982.59;;;8.71;72.07
77431;BME280;66498;48.564;19.272;2023-04-01T00:41:48;95981.22;;;8.64;72.47
77431;BME280;66498;48.564;19.272;2023-04-01T00:44:27;95986.19;;;8.65;72.38
77431;BME280;66498;48.564;19.272;2023-04-01T00:46:53;95979.41;;;8.69;72.58
77431;BME280;66498;48.564;19.272;2023-04-01T00:49:21;95982.50;;;8.61;72.89
77431;BME280;66498;48.564;19.272;2023-04-01T00:51:50;95977.31;;;8.66;72.19
77431;BME280;66498;48.564;19.272;2023-04-01T00:54:19;95973.84;;;8.61;72.71
77431;BME280;66498;48.564;19.272;2023-04-01T00:59:27;95979.41;;;8.69;72.09
77431;BME280;66498;48.564;19.272;2023-04-01T01:01:53;95979.56;;;8.58;72.59
77431;BME280;66498;48.564;19.272;2023-04-01T01:04:33;95990.34;;;8.61;72.54
77431;BME280;66498;48.564;19.272;2023-04-01T01:10:03;95985.38;;;8.60;72.45
77431;BME280;66498;48.564;19.272;2023-04-01T01:15:33;95994.53;;;8.62;72.03
77431;BME280;66498;48.564;19.272;2023-04-01T01:20:53;95998.16;;;8.56;72.35
77431;BME280;66498;48.564;19.272;2023-04-01T01:26:29;95993.34;;;8.48;72.90
77431;BME280;66498;48.564;19.272;2023-04-01T01:32:07;95993.81;;;8.45;73.26
77431;BME280;66498;48.564;19.272;2023-04-01T01:37:39;95995.22;;;8.52;72.82
77431;BME280;66498;48.564;19.272;2023-04-01T01:40:10;95994.28;;;8.64;72.39
77431;BME280;66498;48.564;19.272;2023-04-01T01:42:40;95986.19;;;8.65;71.93
77431;BME280;66498;48.564;19.272;2023-04-01T01:45:08;95990.09;;;8.63;72.29
77431;BME280;66498;48.564;19.272;2023-04-01T01:47:35;95987.50;;;8.63;72.21
77431;BME280;66498;48.564;19.272;2023-04-01T01:50:01;95994.00;;;8.60;72.78
77431;BME280;66498;48.564;19.272;2023-04-01T01:52:28;95989.34;;;8.67;72.48
77431;BME280;66498;48.564;19.272;2023-04-01T01:54:56;95991.69;;;8.64;72.41
77431;BME280;66498;48.564;19.272;2023-04-01T01:57:26;95992.47;;;8.64;72.43
77431;BME280;66498;48.564;19.272;2023-04-01T01:59:58;95996.94;;;8.69;72.63
77431;BME280;66498;48.564;19.272;2023-04-01T02:02:27;95995.66;;;8.71;72.39
77431;BME280;66498;48.564;19.272;2023-04-01T02:04:56;95998.28;;;8.71;72.39
77431;BME280;66498;48.564;19.272;2023-04-01T02:07:30;95993.84;;;8.72;72.00
77431;BME280;66498;48.564;19.272;2023-04-01T02:09:58;95993.53;;;8.68;72.64
77431;BME280;66498;48.564;19.272;2023-04-01T02:12:24;95992.84;;;8.51;73.17
77431;BME280;66498;48.564;19.272;2023-04-01T02:14:54;95987.91;;;8.55;73.14
77431;BME280;66498;48.564;19.272;2023-04-01T02:17:25;95993.09;;;8.49;73.25
77431;BME280;66498;48.564;19.272;2023-04-01T02:20:17;95994.91;;;8.49;73.58
77431;BME280;66498;48.564;19.272;2023-04-01T02:22:54;95979.66;;;8.41;73.66
77431;BME280;66498;48.564;19.272;2023-04-01T02:25:26;95992.06;;;8.50;73.08
77431;BME280;66498;48.564;19.272;2023-04-01T02:27:53;95986.72;;;8.40;73.90
77431;BME280;66498;48.564;19.272;2023-04-01T02:30:20;95990.59;;;8.38;73.83
77431;BME280;66498;48.564;19.272;2023-04-01T02:32:46;95983.44;;;8.50;73.21
77431;BME280;66498;48.564;19.272;2023-04-01T02:35:15;95980.75;;;8.45;73.45
77431;BME280;66498;48.564;19.272;2023-04-01T02:37:41;95985.78;;;8.29;74.09
77431;BME280;66498;48.564;19.272;2023-04-01T02:40:09;95992.03;;;8.28;74.41
77431;BME280;66498;48.564;19.272;2023-04-01T02:42:35;95986.16;;;8.38;74.01
77431;BME280;66498;48.564;19.272;2023-04-01T02:45:01;95985.56;;;8.53;73.27
77431;BME280;66498;48.564;19.272;2023-04-01T02:47:27;95988.97;;;8.53;73.26
77431;BME280;66498;48.564;19.272;2023-04-01T02:49:52;95983.16;;;8.51;73.25
77431;BME280;66498;48.564;19.272;2023-04-01T02:52:30;95985.19;;;8.44;73.45
77431;BME280;66498;48.564;19.272;2023-04-01T02:54:56;95985.44;;;8.43;73.65
77431;BME280;66498;48.564;19.272;2023-04-01T02:57:22;95980.69;;;8.40;73.80
77431;BME280;66498;48.564;19.272;2023-04-01T02:59:48;95985.84;;;8.35;73.91
77431;BME280;66498;48.564;19.272;2023-04-01T03:02:14;95982.19;;;8.36;73.94
77431;BME280;66498;48.564;19.272;2023-04-01T03:04:39;95978.25;;;8.33;73.98
77431;BME280;66498;48.564;19.272;2023-04-01T03:07:05;95977.19;;;8.34;74.00
77431;BME280;66498;48.564;19.272;2023-04-01T03:09:31;95980.06;;;8.33;74.21
77431;BME280;66498;48.564;19.272;2023-04-01T03:11:56;95980.59;;;8.35;74.50
77431;BME280;66498;48.564;19.272;2023-04-01T03:14:24;95977.19;;;8.34;74.28
77431;BME280;66498;48.564;19.272;2023-04-01T03:16:49;95976.59;;;8.27;74.56
77431;BME280;66498;48.564;19.272;2023-04-01T03:19:14;95971.41;;;8.05;75.79
77431;BME280;66498;48.564;19.272;2023-04-01T03:21:40;95967.72;;;7.84;76.87
77431;BME280;66498;48.564;19.272;2023-04-01T03:24:06;95965.84;;;7.79;77.09
77431;BME280;66498;48.564;19.272;2023-04-01T03:26:31;95964.50;;;7.77;77.29
77431;BME280;66498;48.564;19.272;2023-04-01T03:28:57;95962.75;;;7.82;76.87
77431;BME280;66498;48.564;19.272;2023-04-01T03:31:23;95961.78;;;7.89;76.56
77431;BME280;66498;48.564;19.272;2023-04-01T03:33:48;95957.38;;;7.94;76.07
77431;BME280;66498;48.564;19.272;2023-04-01T03:36:14;95954.94;;;7.88;76.41
77431;BME280;66498;48.564;19.272;2023-04-01T03:38:41;95953.56;;;7.80;76.74
77431;BME280;66498;48.564;19.272;2023-04-01T03:41:06;95945.84;;;7.68;76.77
77431;BME280;66498;48.564;19.272;2023-04-01T03:43:33;95948.69;;;7.67;76.94
77431;BME280;66498;48.564;19.272;2023-04-01T03:45:58;95953.22;;;7.54;77.09
77431;BME280;66498;48.564;19.272;2023-04-01T03:48:25;95965.91;;;7.46;77.50
77431;BME280;66498;48.564;19.272;2023-04-01T03:50:51;95966.06;;;7.39;77.57
77431;BME280;66498;48.564;19.272;2023-04-01T03:53:17;95975.59;;;7.50;77.09
77431;BME280;66498;48.564;19.272;2023-04-01T03:55:42;95968.00;;;7.66;76.25
77431;BME280;66498;48.564;19.272;2023-04-01T03:58:08;95968.75;;;7.61;76.54
77431;BME280;66498;48.564;19.272;2023-04-01T04:00:34;95974.00;;;7.66;76.52
77431;BME280;66498;48.564;19.272;2023-04-01T04:03:00;95981.50;;;7.41;77.78
77431;BME280;66498;48.564;19.272;2023-04-01T04:05:26;95976.44;;;7.34;78.27
77431;BME280;66498;48.564;19.272;2023-04-01T04:07:53;95975.72;;;7.22;78.35
77431;BME280;66498;48.564;19.272;2023-04-01T04:10:19;95985.91;;;7.23;78.93
77431;BME280;66498;48.564;19.272;2023-04-01T04:12:45;95985.22;;;7.11;79.05
77431;BME280;66498;48.564;19.272;2023-04-01T04:15:11;95980.69;;;7.23;78.76
77431;BME280;66498;48.564;19.272;2023-04-01T04:17:37;95989.34;;;7.24;78.72
77431;BME280;66498;48.564;19.272;2023-04-01T04:20:03;95985.84;;;7.35;78.33
77431;BME280;66498;48.564;19.272;2023-04-01T04:22:28;95991.13;;;7.40;78.18
77431;BME280;66498;48.564;19.272;2023-04-01T04:24:54;96000.41;;;7.48;77.54
77431;BME280;66498;48.564;19.272;2023-04-01T04:27:20;95995.16;;;7.65;76.75
77431;BME280;66498;48.564;19.272;2023-04-01T04:29:45;96001.47;;;7.69;76.99
77431;BME280;66498;48.564;19.272;2023-04-01T04:32:11;96002.56;;;7.73;76.40
77431;BME280;66498;48.564;19.272;2023-04-01T04:34:36;96004.72;;;7.76;76.49
77431;BME280;66498;48.564;19.272;2023-04-01T04:37:02;96007.81;;;7.73;76.02
77431;BME280;66498;48.564;19.272;2023-04-01T04:39:29;96007.50;;;7.69;75.99
77431;BME280;66498;48.564;19.272;2023-04-01T04:41:54;96012.16;;;7.50;76.93
77431;BME280;66498;48.564;19.272;2023-04-01T04:44:20;96008.44;;;7.63;76.16
77431;BME280;66498;48.564;19.272;2023-04-01T04:46:45;96021.59;;;7.51;76.55
77431;BME280;66498;48.564;19.272;2023-04-01T04:49:11;96017.78;;;7.76;75.38
77431;BME280;66498;48.564;19.272;2023-04-01T04:51:36;96027.63;;;7.91;75.02
77431;BME280;66498;48.564;19.272;2023-04-01T04:54:03;96022.22;;;7.75;75.38
77431;BME280;66498;48.564;19.272;2023-04-01T04:56:29;96025.44;;;7.82;75.22
77431;BME280;66498;48.564;19.272;2023-04-01T04:58:56;96028.38;;;7.69;75.85
77431;BME280;66498;48.564;19.272;2023-04-01T05:01:21;96031.78;;;7.70;75.99
77431;BME280;66498;48.564;19.272;2023-04-01T05:03:47;96034.06;;;7.83;75.60
77431;BME280;66498;48.564;19.272;2023-04-01T05:06:14;96033.19;;;7.77;76.67
77431;BME280;66498;48.564;19.272;2023-04-01T05:08:41;96038.69;;;7.98;76.26
77431;BME280;66498;48.564;19.272;2023-04-01T05:11:13;96029.16;;;8.25;75.01
77431;BME280;66498;48.564;19.272;2023-04-01T05:13:40;96035.97;;;8.48;73.82
77431;BME280;66498;48.564;19.272;2023-04-01T05:16:11;96039.81;;;8.41;73.05
77431;BME280;66498;48.564;19.272;2023-04-01T05:18:36;96031.59;;;8.54;72.82
77431;BME280;66498;48.564;19.272;2023-04-01T05:21:02;96031.28;;;8.50;74.04
77431;BME280;66498;48.564;19.272;2023-04-01T05:23:28;96036.56;;;8.56;74.58
77431;BME280;66498;48.564;19.272;2023-04-01T05:25:55;96031.69;;;8.64;72.92
77431;BME280;66498;48.564;19.272;2023-04-01T05:28:22;96027.44;;;8.58;72.65
77431;BME280;66498;48.564;19.272;2023-04-01T05:30:48;96027.81;;;8.67;71.85
77431;BME280;66498;48.564;19.272;2023-04-01T05:33:14;96026.63;;;8.80;70.89
77431;BME280;66498;48.564;19.272;2023-04-01T05:35:40;96027.66;;;8.79;70.75
77431;BME280;66498;48.564;19.272;2023-04-01T05:38:06;96033.56;;;8.69;71.37
77431;BME280;66498;48.564;19.272;2023-04-01T05:40:31;96030.75;;;8.75;71.11
77431;BME280;66498;48.564;19.272;2023-04-01T05:42:58;96028.59;;;8.94;70.15
77431;BME280;66498;48.564;19.272;2023-04-01T05:45:23;96027.75;;;8.89;70.25
77431;BME280;66498;48.564;19.272;2023-04-01T05:47:49;96017.88;;;8.96;70.32
77431;BME280;66498;48.564;19.272;2023-04-01T05:50:14;96022.16;;;9.34;68.85
77431;BME280;66498;48.564;19.272;2023-04-01T05:52:40;96017.81;;;9.50;68.48
77431;BME280;66498;48.564;19.272;2023-04-01T05:55:06;96027.97;;;9.79;67.58
77431;BME280;66498;48.564;19.272;2023-04-01T05:57:32;96024.94;;;9.60;67.93
77431;BME280;66498;48.564;19.272;2023-04-01T05:59:58;96040.97;;;9.31;68.61
77431;BME280;66498;48.564;19.272;2023-04-01T06:02:23;96025.78;;;9.33;68.53
77431;BME280;66498;48.564;19.272;2023-04-01T06:05:00;96020.34;;;9.40;68.10
77431;BME280;66498;48.564;19.272;2023-04-01T06:07:28;96011.63;;;9.66;67.31
77431;BME280;66498;48.564;19.272;2023-04-01T06:09:54;96009.94;;;9.87;67.03
77431;BME280;66498;48.564;19.272;2023-04-01T06:12:29;96018.34;;;9.89;66.09
77431;BME280;66498;48.564;19.272;2023-04-01T06:23:56;96026.63;;;10.24;65.40
77431;BME280;66498;48.564;19.272;2023-04-01T06:29:57;96045.06;;;9.91;65.87
77431;BME280;66498;48.564;19.272;2023-04-01T06:49:36;96061.13;;;10.00;66.90
77431;BME280;66498;48.564;19.272;2023-04-01T06:54:53;96049.03;;;9.94;66.87
77431;BME280;66498;48.564;19.272;2023-04-01T06:57:45;96053.75;;;9.97;65.91
77431;BME280;66498;48.564;19.272;2023-04-01T07:00:15;96059.84;;;10.03;66.69
77431;BME280;66498;48.564;19.272;2023-04-01T07:09:11;96056.84;;;10.26;65.65
77431;BME280;66498;48.564;19.272;2023-04-01T07:11:38;96057.91;;;10.35;65.41
77431;BME280;66498;48.564;19.272;2023-04-01T07:14:29;96051.66;;;10.36;64.95
77431;BME280;66498;48.564;19.272;2023-04-01T07:17:19;96050.31;;;10.39;64.38
77431;BME280;66498;48.564;19.272;2023-04-01T07:22:34;96059.28;;;10.48;64.41
77431;BME280;66498;48.564;19.272;2023-04-01T07:25:07;96054.66;;;10.76;63.83
77431;BME280;66498;48.564;19.272;2023-04-01T07:27:36;96050.47;;;10.80;63.95
77431;BME280;66498;48.564;19.272;2023-04-01T07:30:04;96053.34;;;10.68;62.96
77431;BME280;66498;48.564;19.272;2023-04-01T07:32:45;96051.44;;;10.53;63.51
77431;BME280;66498;48.564;19.272;2023-04-01T07:35:28;96048.31;;;10.56;62.98
77431;BME280;66498;48.564;19.272;2023-04-01T07:40:32;96042.22;;;10.40;63.51
77431;BME280;66498;48.564;19.272;2023-04-01T07:43:33;96041.19;;;10.52;63.38
77431;BME280;66498;48.564;19.272;2023-04-01T07:46:42;96045.75;;;10.77;63.21
77431;BME280;66498;48.564;19.272;2023-04-01T07:49:38;96047.69;;;11.22;61.29
77431;BME280;66498;48.564;19.272;2023-04-01T07:52:24;96046.84;;;11.06;61.46
77431;BME280;66498;48.564;19.272;2023-04-01T07:57:46;96042.41;;;12.04;58.62
77431;BME280;66498;48.564;19.272;2023-04-01T08:03:20;96035.44;;;12.39;57.87
77431;BME280;66498;48.564;19.272;2023-04-01T08:06:01;96030.56;;;12.01;58.57
77431;BME280;66498;48.564;19.272;2023-04-01T08:08:49;96043.22;;;11.99;58.07
77431;BME280;66498;48.564;19.272;2023-04-01T08:11:28;96032.03;;;12.43;58.51
77431;BME280;66498;48.564;19.272;2023-04-01T08:14:24;96028.38;;;12.34;56.20
77431;BME280;66498;48.564;19.272;2023-04-01T08:22:44;96028.00;;;12.61;55.26
77431;BME280;66498;48.564;19.272;2023-04-01T08:25:18;96024.78;;;12.69;55.82
77431;BME280;66498;48.564;19.272;2023-04-01T08:27:51;96028.47;;;13.18;54.79
77431;BME280;66498;48.564;19.272;2023-04-01T08:33:47;96025.13;;;12.58;55.52
77431;BME280;66498;48.564;19.272;2023-04-01T08:36:23;96029.66;;;12.47;55.68
77431;BME280;66498;48.564;19.272;2023-04-01T08:39:17;96031.66;;;12.70;57.13
77431;BME280;66498;48.564;19.272;2023-04-01T08:47:41;96033.22;;;11.96;55.54
77431;BME280;66498;48.564;19.272;2023-04-01T08:53:06;96038.22;;;11.93;56.32
77431;BME280;66498;48.564;19.272;2023-04-01T08:55:37;96042.97;;;11.75;58.11
77431;BME280;66498;48.564;19.272;2023-04-01T08:58:31;96047.94;;;11.61;57.11
77431;BME280;66498;48.564;19.272;2023-04-01T09:01:26;96054.78;;;11.68;57.79
77431;BME280;66498;48.564;19.272;2023-04-01T09:04:11;96051.91;;;11.59;57.09
77431;BME280;66498;48.564;19.272;2023-04-01T09:06:55;96051.38;;;11.47;57.23
77431;BME280;66498;48.564;19.272;2023-04-01T09:09:42;96059.78;;;11.44;58.49
77431;BME280;66498;48.564;19.272;2023-04-01T09:15:16;96065.78;;;11.24;58.36
77431;BME280;66498;48.564;19.272;2023-04-01T09:29:11;96067.38;;;11.20;58.86
77431;BME280;66498;48.564;19.272;2023-04-01T09:34:54;96075.03;;;11.62;58.50
77431;BME280;66498;48.564;19.272;2023-04-01T09:40:37;96062.91;;;11.41;58.31
77431;BME280;66498;48.564;19.272;2023-04-01T09:43:23;96062.13;;;12.01;57.44
77431;BME280;66498;48.564;19.272;2023-04-01T09:56:51;96059.50;;;11.91;56.87
77431;BME280;66498;48.564;19.272;2023-04-01T10:10:06;96053.72;;;12.10;57.17
77431;BME280;66498;48.564;19.272;2023-04-01T10:29:10;96055.72;;;13.42;54.04
77431;BME280;66498;48.564;19.272;2023-04-01T10:56:46;96049.16;;;12.90;55.50
77431;BME280;66498;48.564;19.272;2023-04-01T11:02:15;96056.44;;;13.09;55.25
77431;BME280;66498;48.564;19.272;2023-04-01T11:27:12;96050.69;;;12.47;57.31
77431;BME280;66498;48.564;19.272;2023-04-01T11:30:19;96065.75;;;12.96;55.92
77431;BME280;66498;48.564;19.272;2023-04-01T11:32:57;96058.38;;;12.93;55.92
77431;BME280;66498;48.564;19.272;2023-04-01T11:38:19;96068.72;;;12.84;55.88
77431;BME280;66498;48.564;19.272;2023-04-01T11:41:02;96067.41;;;12.76;56.66
77431;BME280;66498;48.564;19.272;2023-04-01T11:49:41;96078.34;;;12.44;57.69
77431;BME280;66498;48.564;19.272;2023-04-01T11:55:14;96084.94;;;12.31;59.65
77431;BME280;66498;48.564;19.272;2023-04-01T12:00:39;96085.50;;;12.18;58.44
77431;BME280;66498;48.564;19.272;2023-04-01T12:23:19;96080.78;;;12.20;58.15
77431;BME280;66498;48.564;19.272;2023-04-01T12:35:10;96088.59;;;12.46;57.33
77431;BME280;66498;48.564;19.272;2023-04-01T12:40:45;96096.84;;;12.14;58.01
77431;BME280;66498;48.564;19.272;2023-04-01T12:43:33;96099.47;;;11.78;58.29
77431;BME280;66498;48.564;19.272;2023-04-01T12:46:13;96101.56;;;11.60;58.77
77431;BME280;66498;48.564;19.272;2023-04-01T12:51:42;96097.09;;;11.81;59.34
77431;BME280;66498;48.564;19.272;2023-04-01T13:19:53;96111.56;;;11.69;60.35
77431;BME280;66498;48.564;19.272;2023-04-01T13:31:09;96118.09;;;11.51;61.09
77431;BME280;66498;48.564;19.272;2023-04-01T13:42:15;96118.91;;;11.72;59.29
77431;BME280;66498;48.564;19.272;2023-04-01T13:45:00;96129.66;;;11.50;60.52
77431;BME280;66498;48.564;19.272;2023-04-01T13:56:34;96125.97;;;11.25;60.25
77431;BME280;66498;48.564;19.272;2023-04-01T14:08:04;96121.50;;;11.41;60.78
77431;BME280;66498;48.564;19.272;2023-04-01T14:13:15;96126.25;;;11.39;60.88
77431;BME280;66498;48.564;19.272;2023-04-01T14:18:46;96123.59;;;11.29;61.11
77431;BME280;66498;48.564;19.272;2023-04-01T14:21:41;96124.59;;;11.07;61.14
77431;BME280;66498;48.564;19.272;2023-04-01T14:24:22;96123.81;;;11.12;61.06
77431;BME280;66498;48.564;19.272;2023-04-01T14:41:38;96130.97;;;11.42;60.34
77431;BME280;66498;48.564;19.272;2023-04-01T14:47:20;96124.16;;;11.51;60.96
77431;BME280;66498;48.564;19.272;2023-04-01T14:50:03;96129.41;;;11.56;60.78
77431;BME280;66498;48.564;19.272;2023-04-01T14:52:36;96118.38;;;11.65;60.96
77431;BME280;66498;48.564;19.272;2023-04-01T14:55:20;96127.34;;;11.58;60.57
77431;BME280;66498;48.564;19.272;2023-04-01T14:58:19;96141.00;;;11.81;59.76
77431;BME280;66498;48.564;19.272;2023-04-01T15:00:50;96126.00;;;11.81;60.20
77431;BME280;66498;48.564;19.272;2023-04-01T15:03:48;96121.25;;;11.68;60.11
77431;BME280;66498;48.564;19.272;2023-04-01T15:06:42;96132.84;;;11.57;60.77
77431;BME280;66498;48.564;19.272;2023-04-01T15:20:25;96134.41;;;11.58;61.00
77431;BME280;66498;48.564;19.272;2023-04-01T15:31:25;96133.88;;;11.35;61.37
77431;BME280;66498;48.564;19.272;2023-04-01T15:36:55;96143.84;;;11.28;62.61
77431;BME280;66498;48.564;19.272;2023-04-01T15:39:49;96139.56;;;11.17;61.80
77431;BME280;66498;48.564;19.272;2023-04-01T15:50:22;96155.53;;;11.00;62.58
77431;BME280;66498;48.564;19.272;2023-04-01T15:53:11;96161.28;;;10.87;63.63
77431;BME280;66498;48.564;19.272;2023-04-01T16:09:16;96188.16;;;9.60;79.16
77431;BME280;66498;48.564;19.272;2023-04-01T16:11:59;96199.19;;;9.89;76.78
77431;BME280;66498;48.564;19.272;2023-04-01T16:17:33;96210.94;;;9.82;76.45
77431;BME280;66498;48.564;19.272;2023-04-01T16:20:34;96201.22;;;9.55;78.36
77431;BME280;66498;48.564;19.272;2023-04-01T16:29:02;96200.75;;;9.90;74.98
77431;BME280;66498;48.564;19.272;2023-04-01T16:34:21;96205.25;;;9.95;72.73
77431;BME280;66498;48.564;19.272;2023-04-01T16:37:05;96209.69;;;9.89;73.87
77431;BME280;66498;48.564;19.272;2023-04-01T16:39:52;96207.94;;;9.73;73.10
77431;BME280;66498;48.564;19.272;2023-04-01T16:51:11;96226.56;;;9.71;75.18
77431;BME280;66498;48.564;19.272;2023-04-01T16:54:04;96221.28;;;9.44;73.05
77431;BME280;66498;48.564;19.272;2023-04-01T16:56:45;96228.63;;;9.20;75.20
77431;BME280;66498;48.564;19.272;2023-04-01T17:04:57;96244.84;;;8.62;76.95
77431;BME280;66498;48.564;19.272;2023-04-01T17:07:49;96246.53;;;8.51;77.40
77431;BME280;66498;48.564;19.272;2023-04-01T17:18:23;96255.78;;;8.75;76.59
77431;BME280;66498;48.564;19.272;2023-04-01T17:21:00;96256.66;;;8.81;76.83
77431;BME280;66498;48.564;19.272;2023-04-01T17:23:53;96269.63;;;8.76;78.69
77431;BME280;66498;48.564;19.272;2023-04-01T17:26:32;96274.31;;;8.91;77.23
77431;BME280;66498;48.564;19.272;2023-04-01T17:45:36;96291.00;;;8.51;80.83
77431;BME280;66498;48.564;19.272;2023-04-01T17:50:44;96302.50;;;8.67;79.88
77431;BME280;66498;48.564;19.272;2023-04-01T17:55:56;96298.66;;;8.74;79.52
77431;BME280;66498;48.564;19.272;2023-04-01T17:58:42;96302.41;;;8.62;81.25
77431;BME280;66498;48.564;19.272;2023-04-01T18:11:56;96297.16;;;8.45;80.96
77431;BME280;66498;48.564;19.272;2023-04-01T18:14:45;96304.69;;;8.41;81.12
77431;BME280;66498;48.564;19.272;2023-04-01T18:20:01;96310.31;;;8.33;80.93
77431;BME280;66498;48.564;19.272;2023-04-01T18:22:48;96313.59;;;8.28;81.00
77431;BME280;66498;48.564;19.272;2023-04-01T18:25:27;96320.06;;;8.55;80.03
77431;BME280;66498;48.564;19.272;2023-04-01T18:33:56;96330.56;;;8.26;80.44
77431;BME280;66498;48.564;19.272;2023-04-01T18:37:13;96328.97;;;8.25;80.91
77431;BME280;66498;48.564;19.272;2023-04-01T18:39:46;96333.38;;;8.36;80.34
77431;BME280;66498;48.564;19.272;2023-04-01T18:42:28;96333.16;;;8.38;79.51
77431;BME280;66498;48.564;19.272;2023-04-01T18:44:56;96337.66;;;8.14;79.99
77431;BME280;66498;48.564;19.272;2023-04-01T18:47:39;96342.47;;;7.76;81.51
77431;BME280;66498;48.564;19.272;2023-04-01T18:50:47;96338.47;;;7.86;80.85
77431;BME280;66498;48.564;19.272;2023-04-01T18:55:54;96339.25;;;7.46;84.01
77431;BME280;66498;48.564;19.272;2023-04-01T18:58:26;96345.72;;;7.43;84.40
77431;BME280;66498;48.564;19.272;2023-04-01T19:01:14;96344.06;;;7.25;85.41
77431;BME280;66498;48.564;19.272;2023-04-01T19:06:30;96344.31;;;7.64;83.57
77431;BME280;66498;48.564;19.272;2023-04-01T19:09:17;96339.59;;;7.49;83.01
77431;BME280;66498;48.564;19.272;2023-04-01T19:12:04;96339.75;;;7.31;82.88
77431;BME280;66498;48.564;19.272;2023-04-01T19:20:26;96349.28;;;6.67;85.69
77431;BME280;66498;48.564;19.272;2023-04-01T19:25:51;96358.13;;;6.89;86.38
77431;BME280;66498;48.564;19.272;2023-04-01T19:34:37;96365.31;;;7.17;84.51
77431;BME280;66498;48.564;19.272;2023-04-01T19:37:24;96361.44;;;6.73;85.53
77431;BME280;66498;48.564;19.272;2023-04-01T19:51:27;96382.03;;;6.21;86.22
77431;BME280;66498;48.564;19.272;2023-04-01T19:59:42;96373.59;;;6.37;86.46
77431;BME280;66498;48.564;19.272;2023-04-01T20:04:45;96375.38;;;6.67;84.06
77431;BME280;66498;48.564;19.272;2023-04-01T20:12:52;96389.31;;;5.45;87.27
77431;BME280;66498;48.564;19.272;2023-04-01T20:16:06;96387.63;;;5.87;86.17
77431;BME280;66498;48.564;19.272;2023-04-01T20:18:34;96395.97;;;5.96;86.35
77431;BME280;66498;48.564;19.272;2023-04-01T20:21:15;96398.13;;;5.81;86.00
77431;BME280;66498;48.564;19.272;2023-04-01T20:23:52;96390.63;;;5.73;86.30
77431;BME280;66498;48.564;19.272;2023-04-01T20:26:24;96399.22;;;5.73;85.93
77431;BME280;66498;48.564;19.272;2023-04-01T20:40:33;96393.09;;;5.49;86.33
77431;BME280;66498;48.564;19.272;2023-04-01T20:48:23;96394.59;;;5.38;85.86
77431;BME280;66498;48.564;19.272;2023-04-01T20:51:14;96394.28;;;4.85;85.69
77431;BME280;66498;48.564;19.272;2023-04-01T20:56:23;96404.00;;;4.39;88.54
77431;BME280;66498;48.564;19.272;2023-04-01T21:01:49;96403.78;;;4.72;88.27
77431;BME280;66498;48.564;19.272;2023-04-01T21:10:00;96405.16;;;4.75;87.96
77431;BME280;66498;48.564;19.272;2023-04-01T21:12:56;96400.66;;;5.14;86.65
77431;BME280;66498;48.564;19.272;2023-04-01T21:23:38;96399.81;;;5.38;85.59
77431;BME280;66498;48.564;19.272;2023-04-01T21:37:08;96402.72;;;4.80;86.77
77431;BME280;66498;48.564;19.272;2023-04-01T21:42:38;96407.38;;;4.71;85.33
77431;BME280;66498;48.564;19.272;2023-04-01T21:50:39;96425.81;;;3.93;87.59
77431;BME280;66498;48.564;19.272;2023-04-01T21:53:49;96414.59;;;3.99;87.82
77431;BME280;66498;48.564;19.272;2023-04-01T22:14:09;96417.53;;;4.16;87.94
77431;BME280;66498;48.564;19.272;2023-04-01T22:16:45;96420.56;;;4.07;88.00
77431;BME280;66498;48.564;19.272;2023-04-01T22:19:20;96419.53;;;4.14;87.48
77431;BME280;66498;48.564;19.272;2023-04-01T22:27:10;96426.84;;;3.86;86.02
77431;BME280;66498;48.564;19.272;2023-04-01T22:32:45;96428.28;;;3.75;86.79
77431;BME280;66498;48.564;19.272;2023-04-01T22:35:29;96426.06;;;3.85;87.15
77431;BME280;66498;48.564;19.272;2023-04-01T22:43:58;96417.63;;;3.96;87.04
77431;BME280;66498;48.564;19.272;2023-04-01T22:51:47;96418.47;;;3.84;85.55
77431;BME280;66498;48.564;19.272;2023-04-01T22:54:24;96416.09;;;3.75;86.51
77431;BME280;66498;48.564;19.272;2023-04-01T22:56:54;96409.59;;;4.05;85.78
77431;BME280;66498;48.564;19.272;2023-04-01T23:02:16;96408.00;;;4.03;86.28
77431;BME280;66498;48.564;19.272;2023-04-01T23:04:43;96420.22;;;3.90;86.04
77431;BME280;66498;48.564;19.272;2023-04-01T23:10:42;96418.69;;;3.82;87.80
77431;BME280;66498;48.564;19.272;2023-04-01T23:13:18;96418.34;;;4.10;85.70
77431;BME280;66498;48.564;19.272;2023-04-01T23:15:44;96421.44;;;3.87;87.05
77431;BME280;66498;48.564;19.272;2023-04-01T23:18:30;96422.41;;;3.93;86.20
77431;BME280;66498;48.564;19.272;2023-04-01T23:26:50;96419.34;;;3.58;87.54
77431;BME280;66498;48.564;19.272;2023-04-01T23:29:19;96420.41;;;3.43;87.76
77431;BME280;66498;48.564;19.272;2023-04-01T23:31:47;96428.38;;;3.28;87.04